createdAt,value
2022-10-13T00:00:24.889Z,88.47
2022-10-13T00:03:26.134Z,88.59
2022-10-13T00:06:14.105Z,88.31
2022-10-13T00:16:42.222Z,88.48
2022-10-13T00:20:06.790Z,88.31
2022-10-13T00:23:03.510Z,88.39
2022-10-13T00:26:06.101Z,88.67
2022-10-13T00:29:03.691Z,88.95
2022-10-13T00:32:06.494Z,89.01
2022-10-13T00:34:53.730Z,89.01
2022-10-13T00:37:44.046Z,89.06
2022-10-13T00:40:48.595Z,89.33
2022-10-13T00:44:13.590Z,89.69
2022-10-13T00:46:58.197Z,90.04
2022-10-13T00:49:43.041Z,90.22
2022-10-13T00:52:27.048Z,90.46
2022-10-13T00:55:18.170Z,90.42
2022-10-13T00:58:12.863Z,90.43
2022-10-13T01:01:28.075Z,90.47
2022-10-13T01:04:38.266Z,90.12
2022-10-13T01:07:33.722Z,90.17
2022-10-13T01:10:24.862Z,90.21
2022-10-13T01:13:53.352Z,90.24
2022-10-13T01:16:48.442Z,90.17
2022-10-13T01:20:06.445Z,90.03
2022-10-13T01:23:01.661Z,90.03
2022-10-13T01:26:02.219Z,90.17
2022-10-13T01:29:10.435Z,90.18
2022-10-13T01:32:21.594Z,89.97
2022-10-13T01:35:45.568Z,90.02
2022-10-13T01:38:48.949Z,90.06
2022-10-13T01:42:12.484Z,89.84
2022-10-13T01:45:21.292Z,90.04
2022-10-13T01:48:04.716Z,90.25
2022-10-13T01:51:13.477Z,90.50
2022-10-13T01:54:37.607Z,90.45
2022-10-13T01:57:38.771Z,90.51
2022-10-13T02:00:34.841Z,90.48
2022-10-13T02:03:25.596Z,90.28
2022-10-13T02:06:36.680Z,90.22
2022-10-13T02:13:21.547Z,90.51
2022-10-13T02:16:34.339Z,90.42
2022-10-13T02:19:45.494Z,90.39
2022-10-13T02:22:51.119Z,90.58
2022-10-13T02:25:38.577Z,90.77
2022-10-13T02:29:14.388Z,90.74
2022-10-13T02:32:01.504Z,90.62
2022-10-13T02:34:50.050Z,90.61
2022-10-13T02:37:39.924Z,90.46
2022-10-13T02:40:29.339Z,90.27
2022-10-13T02:43:13.239Z,90.36
2022-10-13T02:46:35.046Z,90.32
2022-10-13T02:49:07.351Z,90.53
2022-10-13T02:51:53.795Z,90.45
2022-10-13T02:54:47.040Z,90.58
2022-10-13T02:57:31.574Z,90.82
2022-10-13T03:00:11.200Z,90.36
2022-10-13T03:02:49.827Z,90.03
2022-10-13T03:05:47.624Z,90.06
2022-10-13T03:08:37.312Z,90.26
2022-10-13T03:11:28.072Z,90.35
2022-10-13T03:14:25.857Z,90.25
2022-10-13T03:17:47.548Z,90.03
2022-10-13T03:20:32.552Z,89.81
2022-10-13T03:23:27.017Z,89.76
2022-10-13T03:26:27.039Z,89.86
2022-10-13T03:29:19.421Z,90.04
2022-10-13T03:32:04.040Z,89.91
2022-10-13T03:34:53.173Z,90.29
2022-10-13T03:37:59.683Z,90.20
2022-10-13T03:40:56.036Z,90.24
2022-10-13T03:43:51.240Z,90.30
2022-10-13T03:46:47.172Z,90.42
2022-10-13T03:49:58.335Z,90.68
2022-10-13T03:52:33.467Z,90.85
2022-10-13T03:55:30.209Z,91.00
2022-10-13T03:58:24.879Z,91.01
2022-10-13T04:01:18.035Z,90.92
2022-10-13T04:04:02.615Z,90.86
2022-10-13T04:06:54.315Z,90.87
2022-10-13T04:09:51.011Z,91.08
2022-10-13T04:12:27.239Z,91.28
2022-10-13T04:15:20.661Z,91.33
2022-10-13T04:18:18.996Z,91.36
2022-10-13T04:21:00.374Z,91.66
2022-10-13T04:24:04.855Z,91.72
2022-10-13T04:26:47.715Z,91.81
2022-10-13T04:29:47.581Z,91.80
2022-10-13T04:32:44.596Z,91.75
2022-10-13T04:35:35.896Z,91.87
2022-10-13T04:38:14.482Z,91.92
2022-10-13T04:41:16.626Z,91.94
2022-10-13T04:43:58.494Z,91.98
2022-10-13T04:47:07.239Z,91.86
2022-10-13T04:49:43.983Z,91.80
2022-10-13T04:52:44.191Z,91.71
2022-10-13T04:55:41.977Z,91.96
2022-10-13T04:58:42.029Z,91.76
2022-10-13T05:02:10.779Z,91.69
2022-10-13T05:04:55.243Z,91.80
2022-10-13T05:07:37.357Z,91.83
2022-10-13T05:10:23.871Z,92.16
2022-10-13T05:13:08.007Z,92.16
2022-10-13T05:15:56.303Z,92.30
2022-10-13T05:18:43.567Z,92.43
2022-10-13T05:21:37.718Z,92.67
2022-10-13T05:27:20.777Z,92.61
2022-10-13T05:29:58.168Z,92.52
2022-10-13T05:32:39.103Z,92.58
2022-10-13T05:35:17.667Z,92.73
2022-10-13T05:37:54.841Z,92.69
2022-10-13T05:40:34.810Z,92.58
2022-10-13T05:43:15.328Z,92.52
2022-10-13T05:45:48.562Z,92.58
2022-10-13T05:48:30.356Z,92.65
2022-10-13T05:51:15.127Z,92.86
2022-10-13T06:02:46.570Z,93.31
2022-10-13T06:05:53.889Z,93.68
2022-10-13T06:08:27.166Z,93.90
2022-10-13T06:11:16.382Z,93.70
2022-10-13T06:13:52.636Z,93.65
2022-10-13T06:16:28.840Z,93.79
2022-10-13T06:19:07.344Z,93.73
2022-10-13T06:21:38.816Z,93.86
2022-10-13T06:24:36.971Z,93.76
2022-10-13T06:27:18.183Z,94.14
2022-10-13T06:30:00.620Z,94.10
2022-10-13T06:32:47.075Z,94.10
2022-10-13T06:35:45.297Z,94.08
2022-10-13T06:38:30.838Z,94.06
2022-10-13T06:41:14.845Z,94.12
2022-10-13T06:43:51.391Z,94.15
2022-10-13T06:46:44.119Z,94.24
2022-10-13T06:49:27.666Z,94.16
2022-10-13T06:52:07.149Z,94.13
2022-10-13T06:54:38.882Z,94.03
2022-10-13T06:57:30.340Z,94.01
2022-10-13T07:00:38.738Z,94.12
2022-10-13T07:03:21.954Z,93.88
2022-10-13T07:06:03.722Z,93.64
2022-10-13T07:08:45.070Z,93.34
2022-10-13T07:11:16.594Z,93.04
2022-10-13T07:14:13.291Z,92.78
2022-10-13T07:16:52.435Z,92.40
2022-10-13T07:19:20.978Z,91.83
2022-10-13T07:22:26.269Z,90.79
2022-10-13T07:25:11.147Z,90.71
2022-10-13T07:28:10.308Z,90.51
2022-10-13T07:30:46.109Z,89.17
2022-10-13T07:33:41.072Z,88.28
2022-10-13T07:36:28.640Z,88.38
2022-10-13T07:39:01.218Z,88.33
2022-10-13T07:41:41.939Z,87.39
2022-10-13T07:44:29.010Z,86.49
2022-10-13T07:47:09.017Z,85.72
2022-10-13T07:49:47.088Z,86.01
2022-10-13T07:52:22.336Z,85.82
2022-10-13T07:55:19.912Z,85.60
2022-10-13T07:58:01.100Z,84.88
2022-10-13T08:00:34.985Z,84.57
2022-10-13T08:03:10.772Z,84.55
2022-10-13T08:05:50.798Z,84.95
2022-10-13T08:08:58.626Z,84.52
2022-10-13T08:11:31.390Z,83.50
2022-10-13T08:14:03.471Z,82.81
2022-10-13T08:16:40.222Z,81.00
2022-10-13T08:19:21.917Z,80.04
2022-10-13T08:22:12.210Z,79.87
2022-10-13T08:25:08.331Z,79.75
2022-10-13T08:27:50.694Z,78.76
2022-10-13T08:30:33.774Z,78.39
2022-10-13T08:33:06.269Z,78.28
2022-10-13T08:35:43.648Z,77.58
2022-10-13T08:38:20.613Z,75.78
2022-10-13T08:41:16.272Z,75.12
2022-10-13T08:44:39.505Z,76.31
2022-10-13T08:47:14.073Z,76.15
2022-10-13T08:49:56.547Z,76.44
2022-10-13T08:52:55.696Z,76.65
2022-10-13T08:55:34.132Z,75.61
2022-10-13T08:58:26.286Z,73.19
2022-10-13T09:01:27.140Z,71.23
2022-10-13T09:04:12.972Z,70.74
2022-10-13T09:07:05.485Z,69.92
2022-10-13T09:09:51.935Z,70.45
2022-10-13T09:12:26.980Z,71.34
2022-10-13T09:15:17.063Z,71.27
2022-10-13T09:18:48.836Z,68.47
2022-10-13T09:21:42.721Z,66.98
2022-10-13T09:24:42.756Z,67.69
2022-10-13T09:27:22.886Z,65.87
2022-10-13T09:30:31.792Z,66.65
2022-10-13T09:33:18.826Z,66.22
2022-10-13T09:36:28.789Z,65.60
2022-10-13T09:39:27.491Z,63.29
2022-10-13T09:42:21.213Z,61.57
2022-10-13T09:45:22.887Z,61.77
2022-10-13T09:48:20.558Z,60.46
2022-10-13T09:50:59.296Z,59.52
2022-10-13T09:53:47.135Z,60.56
2022-10-13T09:56:49.905Z,61.41
2022-10-13T09:59:43.171Z,60.22
2022-10-13T10:02:32.943Z,59.24
2022-10-13T10:05:54.870Z,56.50
2022-10-13T10:08:33.680Z,57.77
2022-10-13T10:11:15.084Z,58.84
2022-10-13T10:13:54.969Z,56.81
2022-10-13T10:16:43.058Z,55.34
2022-10-13T10:19:46.221Z,54.57
2022-10-13T10:22:52.878Z,51.03
2022-10-13T10:26:02.274Z,50.28
2022-10-13T10:29:54.262Z,48.95
2022-10-13T10:32:58.570Z,48.05
2022-10-13T10:36:16.609Z,50.06
2022-10-13T10:39:08.655Z,51.89
2022-10-13T10:42:00.500Z,51.44
2022-10-13T10:44:56.209Z,50.94
2022-10-13T10:47:46.574Z,51.01
2022-10-13T10:50:26.416Z,50.30
2022-10-13T10:53:17.107Z,51.04
2022-10-13T10:56:17.951Z,50.99
2022-10-13T10:58:52.726Z,50.75
2022-10-13T11:01:53.211Z,50.61
2022-10-13T11:04:42.206Z,50.56
2022-10-13T11:07:21.750Z,50.55
2022-10-13T11:09:50.370Z,49.69
2022-10-13T11:12:21.497Z,50.98
2022-10-13T11:15:11.719Z,51.53
2022-10-13T11:17:41.862Z,51.76
2022-10-13T11:20:30.757Z,51.21
2022-10-13T11:22:59.062Z,50.28
2022-10-13T11:25:40.437Z,50.31
2022-10-13T11:28:40.542Z,51.30
2022-10-13T11:31:16.417Z,51.13
2022-10-13T11:33:48.500Z,51.42
2022-10-13T11:36:37.476Z,51.42
2022-10-13T11:39:40.271Z,50.56
2022-10-13T11:42:53.326Z,50.65
2022-10-13T11:46:00.135Z,50.31
2022-10-13T11:48:39.045Z,49.55
2022-10-13T11:51:23.739Z,49.27
2022-10-13T11:54:00.697Z,47.93
2022-10-13T11:56:48.701Z,47.71
2022-10-13T11:59:23.022Z,48.40
2022-10-13T12:02:06.699Z,48.16
2022-10-13T12:04:46.665Z,48.73
2022-10-13T12:07:16.157Z,46.32
2022-10-13T12:10:13.200Z,45.03
2022-10-13T12:12:50.010Z,45.83
2022-10-13T12:16:08.838Z,46.35
2022-10-13T12:18:40.790Z,44.58
2022-10-13T12:21:31.472Z,43.69
2022-10-13T12:24:21.483Z,44.06
2022-10-13T12:26:50.199Z,42.71
2022-10-13T12:29:20.223Z,41.50
2022-10-13T12:31:59.924Z,42.06
2022-10-13T12:34:34.882Z,41.87
2022-10-13T12:37:36.550Z,40.57
2022-10-13T12:40:06.377Z,40.92
2022-10-13T12:42:40.575Z,41.33
2022-10-13T12:45:20.567Z,42.19
2022-10-13T12:47:56.386Z,41.66
2022-10-13T12:50:45.369Z,42.48
2022-10-13T12:53:17.226Z,42.69
2022-10-13T12:56:02.447Z,42.25
2022-10-13T12:58:33.083Z,41.83
2022-10-13T13:01:08.422Z,41.05
2022-10-13T13:03:38.636Z,42.52
2022-10-13T13:06:13.779Z,42.25
2022-10-13T13:08:44.612Z,42.25
2022-10-13T13:11:34.076Z,42.78
2022-10-13T13:14:38.026Z,43.72
2022-10-13T13:17:17.347Z,43.98
2022-10-13T13:19:55.232Z,43.26
2022-10-13T13:22:26.344Z,42.89
2022-10-13T13:24:59.905Z,42.40
2022-10-13T13:27:46.715Z,42.36
2022-10-13T13:30:18.354Z,42.17
2022-10-13T13:32:46.743Z,42.59
2022-10-13T13:35:15.141Z,43.68
2022-10-13T13:37:49.705Z,44.55
2022-10-13T13:40:34.690Z,45.90
2022-10-13T13:43:03.145Z,46.72
2022-10-13T13:45:37.206Z,48.14
2022-10-13T13:48:06.491Z,49.36
2022-10-13T13:50:36.090Z,49.86
2022-10-13T13:53:05.896Z,50.88
2022-10-13T13:55:38.066Z,51.26
2022-10-13T13:58:15.369Z,52.20
2022-10-13T14:00:51.215Z,52.58
2022-10-13T14:03:40.207Z,52.93
2022-10-13T14:06:11.611Z,53.66
2022-10-13T14:08:43.221Z,53.98
2022-10-13T14:11:11.141Z,53.95
2022-10-13T14:13:45.345Z,54.16
2022-10-13T14:16:29.610Z,54.88
2022-10-13T14:18:57.672Z,55.20
2022-10-13T14:21:25.538Z,55.61
2022-10-13T14:23:56.688Z,55.29
2022-10-13T14:26:24.768Z,55.30
2022-10-13T14:28:52.985Z,55.34
2022-10-13T14:31:20.496Z,55.88
2022-10-13T14:33:52.011Z,56.32
2022-10-13T14:36:22.077Z,56.45
2022-10-13T14:38:51.841Z,56.63
2022-10-13T14:41:19.481Z,56.77
2022-10-13T14:43:47.279Z,56.92
2022-10-13T14:46:17.112Z,57.07
2022-10-13T14:48:57.198Z,57.28
2022-10-13T14:51:26.686Z,57.47
2022-10-13T14:53:55.972Z,57.56
2022-10-13T14:56:31.436Z,57.70
2022-10-13T14:59:01.947Z,58.06
2022-10-13T15:01:33.683Z,58.36
2022-10-13T15:04:14.578Z,58.58
2022-10-13T15:06:43.134Z,59.23
2022-10-13T15:09:12.159Z,59.54
2022-10-13T15:11:42.563Z,59.64
2022-10-13T15:14:11.275Z,59.67
2022-10-13T15:16:43.048Z,60.01
2022-10-13T15:19:13.979Z,60.46
2022-10-13T15:21:54.038Z,60.85
2022-10-13T15:24:22.823Z,61.15
2022-10-13T15:26:50.647Z,61.37
2022-10-13T15:29:29.594Z,61.56
2022-10-13T15:32:18.495Z,61.89
2022-10-13T15:34:59.006Z,62.14
2022-10-13T15:37:43.383Z,62.56
2022-10-13T15:40:12.393Z,63.40
2022-10-13T15:42:47.011Z,63.79
2022-10-13T15:45:15.748Z,64.03
2022-10-13T15:47:43.107Z,64.60
2022-10-13T15:50:12.413Z,64.94
2022-10-13T15:52:53.053Z,65.14
2022-10-13T15:55:21.420Z,65.83
2022-10-13T15:57:52.872Z,66.02
2022-10-13T16:00:22.154Z,66.29
2022-10-13T16:03:09.287Z,66.59
2022-10-13T16:06:17.439Z,66.69
2022-10-13T16:09:06.996Z,66.73
2022-10-13T16:11:52.809Z,66.82
2022-10-13T16:14:32.556Z,66.96
2022-10-13T16:20:18.964Z,67.39
2022-10-13T16:22:52.934Z,67.66
2022-10-13T16:25:40.383Z,68.33
2022-10-13T16:28:07.746Z,68.61
2022-10-13T16:33:46.178Z,68.74
2022-10-13T16:36:48.372Z,68.89
2022-10-13T16:39:21.830Z,69.36
2022-10-13T16:42:22.948Z,69.55
2022-10-13T16:44:54.961Z,69.50
2022-10-13T16:48:15.811Z,69.77
2022-10-13T16:53:41.564Z,70.19
2022-10-13T16:56:31.213Z,70.35
2022-10-13T16:59:11.265Z,70.45
2022-10-13T17:01:58.706Z,70.69
2022-10-13T17:04:30.387Z,70.74
2022-10-13T17:07:00.986Z,70.91
2022-10-13T17:09:51.733Z,71.09
2022-10-13T17:12:24.181Z,71.27
2022-10-13T17:15:16.286Z,71.51
2022-10-13T17:18:35.650Z,71.59
2022-10-13T17:21:13.411Z,71.91
2022-10-13T17:23:59.014Z,72.15
2022-10-13T17:26:37.486Z,72.68
2022-10-13T17:29:13.784Z,72.72
2022-10-13T17:31:46.049Z,72.60
2022-10-13T17:34:16.869Z,72.81
2022-10-13T17:36:52.641Z,72.81
2022-10-13T17:39:20.951Z,72.99
2022-10-13T17:41:59.645Z,73.39
2022-10-13T17:44:54.753Z,73.80
2022-10-13T17:50:26.449Z,74.40
2022-10-13T17:53:29.431Z,74.51
2022-10-13T17:56:13.090Z,74.73
2022-10-13T17:58:59.006Z,74.52
2022-10-13T18:01:51.143Z,74.89
2022-10-13T18:04:31.479Z,74.83
2022-10-13T18:09:53.517Z,74.89
2022-10-13T18:13:01.029Z,75.04
2022-10-13T18:15:29.464Z,75.32
2022-10-13T18:18:03.344Z,76.00
2022-10-13T18:20:32.352Z,76.50
2022-10-13T18:23:01.817Z,76.18
2022-10-13T18:25:34.715Z,76.44
2022-10-13T18:28:03.631Z,76.80
2022-10-13T18:30:32.920Z,76.87
2022-10-13T18:33:11.948Z,77.15
2022-10-13T18:35:59.944Z,76.88
2022-10-13T18:38:41.743Z,77.48
2022-10-13T18:41:20.671Z,77.37
2022-10-13T18:47:29.240Z,77.41
2022-10-13T18:50:24.930Z,77.99
2022-10-13T18:53:14.425Z,78.20
2022-10-13T18:56:28.603Z,78.02
2022-10-13T18:59:06.712Z,78.21
2022-10-13T19:01:45.690Z,78.13
2022-10-13T19:04:25.975Z,77.99
2022-10-13T19:07:12.296Z,78.18
2022-10-13T19:09:49.045Z,78.26
2022-10-13T19:12:40.753Z,78.37
2022-10-13T19:15:35.160Z,78.77
2022-10-13T19:18:28.106Z,78.85
2022-10-13T19:21:03.143Z,78.77
2022-10-13T19:23:33.288Z,79.26
2022-10-13T19:26:34.155Z,79.27
2022-10-13T19:29:50.646Z,79.54
2022-10-13T19:32:34.955Z,79.65
2022-10-13T19:35:05.902Z,79.64
2022-10-13T19:38:14.186Z,79.73
2022-10-13T19:40:49.580Z,79.34
2022-10-13T19:43:24.371Z,79.58
2022-10-13T19:46:35.700Z,79.90
2022-10-13T19:49:39.640Z,79.75
2022-10-13T19:52:52.463Z,79.68
2022-10-13T19:55:24.185Z,79.81
2022-10-13T19:57:58.921Z,79.79
2022-10-13T20:03:36.912Z,80.02
2022-10-13T20:06:16.816Z,80.24
2022-10-13T20:09:15.648Z,80.46
2022-10-13T20:12:03.598Z,81.06
2022-10-13T20:14:43.231Z,81.16
2022-10-13T20:17:20.923Z,81.07
2022-10-13T20:19:59.672Z,80.73
2022-10-13T20:22:41.120Z,80.56
2022-10-13T20:25:22.023Z,80.58
2022-10-13T20:28:13.260Z,80.53
2022-10-13T20:30:58.831Z,80.68
2022-10-13T20:33:45.235Z,80.62
2022-10-13T20:36:28.437Z,80.48
2022-10-13T20:38:59.641Z,80.62
2022-10-13T20:41:32.537Z,80.58
2022-10-13T20:44:04.143Z,80.62
2022-10-13T20:47:25.165Z,80.61
2022-10-13T20:49:58.618Z,80.78
2022-10-13T20:52:30.509Z,80.89
2022-10-13T20:55:07.663Z,80.96
2022-10-13T20:57:42.803Z,80.97
2022-10-13T21:00:16.603Z,80.98
2022-10-13T21:03:01.883Z,81.20
2022-10-13T21:06:17.498Z,81.34
2022-10-13T21:08:50.583Z,81.57
2022-10-13T21:11:39.830Z,81.79
2022-10-13T21:14:28.480Z,81.86
2022-10-13T21:17:07.778Z,82.03
2022-10-13T21:20:02.226Z,82.10
2022-10-13T21:22:33.552Z,82.10
2022-10-13T21:25:36.028Z,82.36
2022-10-13T21:28:11.368Z,82.46
2022-10-13T21:30:39.941Z,82.61
2022-10-13T21:33:18.303Z,82.97
2022-10-13T21:36:20.609Z,83.14
2022-10-13T21:38:54.814Z,83.49
2022-10-13T21:41:29.695Z,84.16
2022-10-13T21:44:20.511Z,83.98
2022-10-13T21:47:01.206Z,84.30
2022-10-13T21:49:34.635Z,84.45
2022-10-13T21:52:24.106Z,84.71
2022-10-13T21:55:22.634Z,85.15
2022-10-13T21:57:54.157Z,85.37
2022-10-13T22:00:35.882Z,85.21
2022-10-13T22:03:06.148Z,84.96
2022-10-13T22:06:15.867Z,85.12
2022-10-13T22:08:51.675Z,85.09
2022-10-13T22:11:33.448Z,84.79
2022-10-13T22:14:19.547Z,84.51
2022-10-13T22:16:50.848Z,84.80
2022-10-13T22:19:23.787Z,84.71
2022-10-13T22:21:52.874Z,84.73
2022-10-13T22:24:24.211Z,85.00
2022-10-13T22:26:53.109Z,84.97
2022-10-13T22:30:08.127Z,84.86
2022-10-13T22:32:46.685Z,84.95
2022-10-13T22:35:23.369Z,84.91
2022-10-13T22:37:57.839Z,85.05
2022-10-13T22:40:25.693Z,84.89
2022-10-13T22:43:22.964Z,85.03
2022-10-13T22:45:57.321Z,85.24
2022-10-13T22:48:45.367Z,85.42
2022-10-13T22:51:33.258Z,85.37
2022-10-13T22:54:13.976Z,85.65
2022-10-13T22:56:45.152Z,85.99
2022-10-13T22:59:33.529Z,86.03
2022-10-13T23:02:05.016Z,86.09
2022-10-13T23:04:53.355Z,86.02
2022-10-13T23:07:29.072Z,86.12
2022-10-13T23:09:58.218Z,86.59
2022-10-13T23:12:30.963Z,86.52
2022-10-13T23:15:05.194Z,86.87
2022-10-13T23:17:34.359Z,86.86
2022-10-13T23:20:13.231Z,87.33
2022-10-13T23:22:43.035Z,87.39
2022-10-13T23:25:12.363Z,87.59
2022-10-13T23:27:45.789Z,87.69
2022-10-13T23:30:19.687Z,87.52
2022-10-13T23:32:47.953Z,87.23
2022-10-13T23:35:35.959Z,87.36
2022-10-13T23:38:09.205Z,87.07
2022-10-13T23:40:37.275Z,87.32
2022-10-13T23:43:10.451Z,87.40
2022-10-13T23:45:46.063Z,87.14
2022-10-13T23:48:17.840Z,87.59
2022-10-13T23:50:54.029Z,87.71
2022-10-13T23:53:33.124Z,87.57
2022-10-13T23:56:03.730Z,87.36
2022-10-13T23:58:32.804Z,87.65
